sensor_id;sensor_type;location;lat;lon;timestamp;P1;durP1;ratioP1;P2;durP2;ratioP2
4839;SDS011;2434;48.486;7.964;2023-07-20T00:00:13;5.97;;;3.33;;
4839;SDS011;2434;48.486;7.964;2023-07-20T00:02:42;5.03;;;3.33;;
4839;SDS011;2434;48.486;7.964;2023-07-20T00:05:10;8.33;;;3.43;;
4839;SDS011;2434;48.486;7.964;2023-07-20T00:07:39;9.10;;;3.70;;
4839;SDS011;2434;48.486;7.964;2023-07-20T00:10:09;12.40;;;3.40;;
4839;SDS011;2434;48.486;7.964;2023-07-20T00:12:37;4.47;;;3.00;;
4839;SDS011;2434;48.486;7.964;2023-07-20T00:15:06;5.80;;;3.50;;
4839;SDS011;2434;48.486;7.964;2023-07-20T00:17:35;5.63;;;3.70;;
4839;SDS011;2434;48.486;7.964;2023-07-20T00:20:04;7.33;;;3.40;;
4839;SDS011;2434;48.486;7.964;2023-07-20T00:22:33;4.73;;;3.10;;
4839;SDS011;2434;48.486;7.964;2023-07-20T00:25:01;4.20;;;3.03;;
4839;SDS011;2434;48.486;7.964;2023-07-20T00:27:31;6.73;;;3.40;;
4839;SDS011;2434;48.486;7.964;2023-07-20T00:29:59;7.10;;;3.90;;
4839;SDS011;2434;48.486;7.964;2023-07-20T00:32:28;6.10;;;3.63;;
4839;SDS011;2434;48.486;7.964;2023-07-20T00:34:56;7.13;;;3.37;;
4839;SDS011;2434;48.486;7.964;2023-07-20T00:37:25;5.40;;;2.47;;
4839;SDS011;2434;48.486;7.964;2023-07-20T00:39:53;7.90;;;3.60;;
4839;SDS011;2434;48.486;7.964;2023-07-20T00:42:22;3.90;;;3.00;;
4839;SDS011;2434;48.486;7.964;2023-07-20T00:44:52;6.50;;;3.10;;
4839;SDS011;2434;48.486;7.964;2023-07-20T00:47:21;4.50;;;2.90;;
4839;SDS011;2434;48.486;7.964;2023-07-20T00:49:50;8.80;;;3.97;;
4839;SDS011;2434;48.486;7.964;2023-07-20T00:52:20;6.30;;;3.10;;
4839;SDS011;2434;48.486;7.964;2023-07-20T00:54:51;9.00;;;3.53;;
4839;SDS011;2434;48.486;7.964;2023-07-20T00:57:22;8.37;;;3.53;;
4839;SDS011;2434;48.486;7.964;2023-07-20T00:59:54;7.73;;;3.13;;
4839;SDS011;2434;48.486;7.964;2023-07-20T01:02:23;7.57;;;3.33;;
4839;SDS011;2434;48.486;7.964;2023-07-20T01:04:51;9.07;;;3.60;;
4839;SDS011;2434;48.486;7.964;2023-07-20T01:07:23;6.30;;;3.20;;
4839;SDS011;2434;48.486;7.964;2023-07-20T01:09:57;7.40;;;3.50;;
4839;SDS011;2434;48.486;7.964;2023-07-20T01:12:35;4.23;;;3.20;;
4839;SDS011;2434;48.486;7.964;2023-07-20T01:15:11;6.27;;;3.47;;
4839;SDS011;2434;48.486;7.964;2023-07-20T01:17:39;5.40;;;3.17;;
4839;SDS011;2434;48.486;7.964;2023-07-20T01:20:08;4.30;;;3.30;;
4839;SDS011;2434;48.486;7.964;2023-07-20T01:22:45;5.57;;;3.60;;
4839;SDS011;2434;48.486;7.964;2023-07-20T01:25:32;4.53;;;2.63;;
4839;SDS011;2434;48.486;7.964;2023-07-20T01:28:23;7.03;;;3.07;;
4839;SDS011;2434;48.486;7.964;2023-07-20T01:31:13;10.80;;;3.63;;
4839;SDS011;2434;48.486;7.964;2023-07-20T01:33:53;3.77;;;2.80;;
4839;SDS011;2434;48.486;7.964;2023-07-20T01:36:24;11.03;;;3.73;;
4839;SDS011;2434;48.486;7.964;2023-07-20T01:38:54;6.93;;;3.60;;
4839;SDS011;2434;48.486;7.964;2023-07-20T01:41:23;5.17;;;3.17;;
4839;SDS011;2434;48.486;7.964;2023-07-20T01:43:52;7.00;;;2.83;;
4839;SDS011;2434;48.486;7.964;2023-07-20T01:46:21;5.73;;;3.27;;
4839;SDS011;2434;48.486;7.964;2023-07-20T01:48:50;6.10;;;3.00;;
4839;SDS011;2434;48.486;7.964;2023-07-20T01:51:19;4.70;;;3.10;;
4839;SDS011;2434;48.486;7.964;2023-07-20T01:53:48;4.60;;;2.93;;
4839;SDS011;2434;48.486;7.964;2023-07-20T01:56:16;6.13;;;3.47;;
4839;SDS011;2434;48.486;7.964;2023-07-20T01:58:44;5.97;;;2.80;;
4839;SDS011;2434;48.486;7.964;2023-07-20T02:01:13;8.33;;;3.50;;
4839;SDS011;2434;48.486;7.964;2023-07-20T02:03:42;5.07;;;2.70;;
4839;SDS011;2434;48.486;7.964;2023-07-20T02:06:11;5.60;;;2.90;;
4839;SDS011;2434;48.486;7.964;2023-07-20T02:08:39;7.23;;;3.37;;
4839;SDS011;2434;48.486;7.964;2023-07-20T02:11:07;4.20;;;2.80;;
4839;SDS011;2434;48.486;7.964;2023-07-20T02:13:36;6.10;;;3.00;;
4839;SDS011;2434;48.486;7.964;2023-07-20T02:16:05;4.70;;;3.03;;
4839;SDS011;2434;48.486;7.964;2023-07-20T02:18:33;4.63;;;2.47;;
4839;SDS011;2434;48.486;7.964;2023-07-20T02:21:04;4.10;;;2.60;;
4839;SDS011;2434;48.486;7.964;2023-07-20T02:23:33;4.47;;;2.87;;
4839;SDS011;2434;48.486;7.964;2023-07-20T02:26:01;6.30;;;3.47;;
4839;SDS011;2434;48.486;7.964;2023-07-20T02:28:29;8.97;;;3.00;;
4839;SDS011;2434;48.486;7.964;2023-07-20T02:30:58;10.50;;;3.13;;
4839;SDS011;2434;48.486;7.964;2023-07-20T02:33:27;3.33;;;2.77;;
4839;SDS011;2434;48.486;7.964;2023-07-20T02:35:55;10.23;;;3.70;;
4839;SDS011;2434;48.486;7.964;2023-07-20T02:38:25;4.93;;;2.40;;
4839;SDS011;2434;48.486;7.964;2023-07-20T02:40:53;7.83;;;3.20;;
4839;SDS011;2434;48.486;7.964;2023-07-20T02:43:21;3.40;;;2.60;;
4839;SDS011;2434;48.486;7.964;2023-07-20T02:45:50;4.73;;;2.63;;
4839;SDS011;2434;48.486;7.964;2023-07-20T02:48:18;4.90;;;2.80;;
4839;SDS011;2434;48.486;7.964;2023-07-20T02:50:47;7.80;;;2.83;;
4839;SDS011;2434;48.486;7.964;2023-07-20T02:53:15;5.87;;;2.93;;
4839;SDS011;2434;48.486;7.964;2023-07-20T02:55:45;6.70;;;3.40;;
4839;SDS011;2434;48.486;7.964;2023-07-20T02:58:14;5.33;;;2.90;;
4839;SDS011;2434;48.486;7.964;2023-07-20T03:00:42;13.30;;;3.80;;
4839;SDS011;2434;48.486;7.964;2023-07-20T03:03:11;5.20;;;2.90;;
4839;SDS011;2434;48.486;7.964;2023-07-20T03:05:40;7.60;;;3.30;;
4839;SDS011;2434;48.486;7.964;2023-07-20T03:08:08;5.00;;;2.83;;
4839;SDS011;2434;48.486;7.964;2023-07-20T03:10:40;4.30;;;2.47;;
4839;SDS011;2434;48.486;7.964;2023-07-20T03:13:10;12.70;;;3.17;;
4839;SDS011;2434;48.486;7.964;2023-07-20T03:15:39;3.60;;;2.47;;
4839;SDS011;2434;48.486;7.964;2023-07-20T03:18:08;4.00;;;3.00;;
4839;SDS011;2434;48.486;7.964;2023-07-20T03:20:37;4.20;;;2.53;;
4839;SDS011;2434;48.486;7.964;2023-07-20T03:23:05;4.80;;;2.80;;
4839;SDS011;2434;48.486;7.964;2023-07-20T03:25:34;4.20;;;2.90;;
4839;SDS011;2434;48.486;7.964;2023-07-20T03:28:04;4.83;;;2.60;;
4839;SDS011;2434;48.486;7.964;2023-07-20T03:30:34;5.60;;;3.17;;
4839;SDS011;2434;48.486;7.964;2023-07-20T03:33:03;4.30;;;2.60;;
4839;SDS011;2434;48.486;7.964;2023-07-20T03:35:31;4.63;;;2.60;;
4839;SDS011;2434;48.486;7.964;2023-07-20T03:37:59;4.73;;;2.13;;
4839;SDS011;2434;48.486;7.964;2023-07-20T03:40:28;7.30;;;2.70;;
4839;SDS011;2434;48.486;7.964;2023-07-20T03:42:56;4.47;;;2.80;;
4839;SDS011;2434;48.486;7.964;2023-07-20T03:45:24;6.93;;;3.07;;
4839;SDS011;2434;48.486;7.964;2023-07-20T03:47:54;5.20;;;2.50;;
4839;SDS011;2434;48.486;7.964;2023-07-20T03:50:23;6.00;;;3.23;;
4839;SDS011;2434;48.486;7.964;2023-07-20T03:52:51;7.93;;;3.23;;
4839;SDS011;2434;48.486;7.964;2023-07-20T03:55:19;5.23;;;3.00;;
4839;SDS011;2434;48.486;7.964;2023-07-20T03:57:48;4.33;;;2.43;;
4839;SDS011;2434;48.486;7.964;2023-07-20T04:00:17;7.23;;;2.90;;
4839;SDS011;2434;48.486;7.964;2023-07-20T04:02:46;4.27;;;2.20;;
4839;SDS011;2434;48.486;7.964;2023-07-20T04:05:16;3.57;;;2.57;;
4839;SDS011;2434;48.486;7.964;2023-07-20T04:07:44;5.30;;;3.13;;
4839;SDS011;2434;48.486;7.964;2023-07-20T04:10:13;5.30;;;2.50;;
4839;SDS011;2434;48.486;7.964;2023-07-20T04:12:41;6.60;;;2.90;;
4839;SDS011;2434;48.486;7.964;2023-07-20T04:15:10;5.53;;;2.87;;
4839;SDS011;2434;48.486;7.964;2023-07-20T04:17:39;6.07;;;2.90;;
4839;SDS011;2434;48.486;7.964;2023-07-20T04:20:08;6.70;;;3.57;;
4839;SDS011;2434;48.486;7.964;2023-07-20T04:22:38;6.60;;;2.80;;
4839;SDS011;2434;48.486;7.964;2023-07-20T04:25:09;6.73;;;2.90;;
4839;SDS011;2434;48.486;7.964;2023-07-20T04:27:38;6.40;;;3.40;;
4839;SDS011;2434;48.486;7.964;2023-07-20T04:30:08;6.80;;;2.70;;
4839;SDS011;2434;48.486;7.964;2023-07-20T04:32:38;5.30;;;2.90;;
4839;SDS011;2434;48.486;7.964;2023-07-20T04:35:16;4.70;;;2.93;;
4839;SDS011;2434;48.486;7.964;2023-07-20T04:37:49;4.40;;;2.67;;
4839;SDS011;2434;48.486;7.964;2023-07-20T04:40:19;5.00;;;2.80;;
4839;SDS011;2434;48.486;7.964;2023-07-20T04:42:48;5.40;;;2.80;;
4839;SDS011;2434;48.486;7.964;2023-07-20T04:45:17;4.27;;;2.80;;
4839;SDS011;2434;48.486;7.964;2023-07-20T04:47:45;6.90;;;2.80;;
4839;SDS011;2434;48.486;7.964;2023-07-20T04:50:14;5.20;;;3.13;;
4839;SDS011;2434;48.486;7.964;2023-07-20T04:52:42;4.87;;;3.00;;
4839;SDS011;2434;48.486;7.964;2023-07-20T04:55:17;7.90;;;2.57;;
4839;SDS011;2434;48.486;7.964;2023-07-20T04:57:46;4.50;;;2.50;;
4839;SDS011;2434;48.486;7.964;2023-07-20T05:00:15;5.17;;;3.43;;
4839;SDS011;2434;48.486;7.964;2023-07-20T05:02:44;4.50;;;3.03;;
4839;SDS011;2434;48.486;7.964;2023-07-20T05:05:15;12.10;;;2.70;;
4839;SDS011;2434;48.486;7.964;2023-07-20T05:07:43;8.60;;;2.80;;
4839;SDS011;2434;48.486;7.964;2023-07-20T05:10:12;4.30;;;2.83;;
4839;SDS011;2434;48.486;7.964;2023-07-20T05:12:42;6.53;;;2.97;;
4839;SDS011;2434;48.486;7.964;2023-07-20T05:15:11;10.63;;;2.70;;
4839;SDS011;2434;48.486;7.964;2023-07-20T05:17:40;4.00;;;2.70;;
4839;SDS011;2434;48.486;7.964;2023-07-20T05:20:09;3.37;;;2.80;;
4839;SDS011;2434;48.486;7.964;2023-07-20T05:22:39;4.93;;;2.90;;
4839;SDS011;2434;48.486;7.964;2023-07-20T05:25:08;6.73;;;2.97;;
4839;SDS011;2434;48.486;7.964;2023-07-20T05:27:37;6.67;;;2.23;;
4839;SDS011;2434;48.486;7.964;2023-07-20T05:30:08;6.83;;;3.60;;
4839;SDS011;2434;48.486;7.964;2023-07-20T05:32:37;6.50;;;2.90;;
4839;SDS011;2434;48.486;7.964;2023-07-20T05:35:04;6.60;;;2.27;;
4839;SDS011;2434;48.486;7.964;2023-07-20T05:37:33;4.93;;;2.73;;
4839;SDS011;2434;48.486;7.964;2023-07-20T05:40:02;3.80;;;2.57;;
4839;SDS011;2434;48.486;7.964;2023-07-20T05:42:31;5.20;;;2.87;;
4839;SDS011;2434;48.486;7.964;2023-07-20T05:44:59;4.90;;;2.80;;
4839;SDS011;2434;48.486;7.964;2023-07-20T05:47:28;6.50;;;2.63;;
4839;SDS011;2434;48.486;7.964;2023-07-20T05:49:57;6.20;;;3.40;;
4839;SDS011;2434;48.486;7.964;2023-07-20T05:52:26;5.87;;;2.43;;
4839;SDS011;2434;48.486;7.964;2023-07-20T05:54:54;4.63;;;2.97;;
4839;SDS011;2434;48.486;7.964;2023-07-20T05:57:22;3.70;;;2.37;;
4839;SDS011;2434;48.486;7.964;2023-07-20T05:59:51;5.97;;;3.60;;
4839;SDS011;2434;48.486;7.964;2023-07-20T06:02:19;4.77;;;2.97;;
4839;SDS011;2434;48.486;7.964;2023-07-20T06:04:49;5.57;;;2.73;;
4839;SDS011;2434;48.486;7.964;2023-07-20T06:07:17;5.43;;;2.80;;
4839;SDS011;2434;48.486;7.964;2023-07-20T06:09:45;4.93;;;2.80;;
4839;SDS011;2434;48.486;7.964;2023-07-20T06:12:14;4.63;;;2.63;;
4839;SDS011;2434;48.486;7.964;2023-07-20T06:14:42;6.40;;;3.10;;
4839;SDS011;2434;48.486;7.964;2023-07-20T06:17:10;4.50;;;2.53;;
4839;SDS011;2434;48.486;7.964;2023-07-20T06:19:39;6.20;;;2.93;;
4839;SDS011;2434;48.486;7.964;2023-07-20T06:22:09;5.23;;;2.67;;
4839;SDS011;2434;48.486;7.964;2023-07-20T06:24:37;7.87;;;2.90;;
4839;SDS011;2434;48.486;7.964;2023-07-20T06:27:06;6.03;;;2.93;;
4839;SDS011;2434;48.486;7.964;2023-07-20T06:29:34;6.30;;;3.23;;
4839;SDS011;2434;48.486;7.964;2023-07-20T06:32:02;9.27;;;3.83;;
4839;SDS011;2434;48.486;7.964;2023-07-20T06:34:31;7.77;;;4.97;;
4839;SDS011;2434;48.486;7.964;2023-07-20T06:37:03;13.07;;;7.10;;
4839;SDS011;2434;48.486;7.964;2023-07-20T06:39:33;10.50;;;5.77;;
4839;SDS011;2434;48.486;7.964;2023-07-20T06:42:04;9.97;;;5.03;;
4839;SDS011;2434;48.486;7.964;2023-07-20T06:44:33;7.20;;;4.10;;
4839;SDS011;2434;48.486;7.964;2023-07-20T06:47:02;8.53;;;3.90;;
4839;SDS011;2434;48.486;7.964;2023-07-20T06:49:30;10.33;;;5.30;;
4839;SDS011;2434;48.486;7.964;2023-07-20T06:51:58;9.20;;;3.70;;
4839;SDS011;2434;48.486;7.964;2023-07-20T06:54:27;8.40;;;4.40;;
4839;SDS011;2434;48.486;7.964;2023-07-20T06:57:03;8.20;;;3.80;;
4839;SDS011;2434;48.486;7.964;2023-07-20T06:59:35;7.23;;;3.73;;
4839;SDS011;2434;48.486;7.964;2023-07-20T07:02:07;7.20;;;3.50;;
4839;SDS011;2434;48.486;7.964;2023-07-20T07:04:38;6.33;;;3.80;;
4839;SDS011;2434;48.486;7.964;2023-07-20T07:07:07;6.60;;;3.53;;
4839;SDS011;2434;48.486;7.964;2023-07-20T07:09:35;5.27;;;3.57;;
4839;SDS011;2434;48.486;7.964;2023-07-20T07:12:06;7.20;;;3.53;;
4839;SDS011;2434;48.486;7.964;2023-07-20T07:14:35;5.67;;;3.70;;
4839;SDS011;2434;48.486;7.964;2023-07-20T07:17:05;10.87;;;4.10;;
4839;SDS011;2434;48.486;7.964;2023-07-20T07:19:33;6.27;;;3.33;;
4839;SDS011;2434;48.486;7.964;2023-07-20T07:22:02;8.80;;;3.37;;
4839;SDS011;2434;48.486;7.964;2023-07-20T07:24:31;6.20;;;3.77;;
4839;SDS011;2434;48.486;7.964;2023-07-20T07:27:00;8.57;;;3.80;;
4839;SDS011;2434;48.486;7.964;2023-07-20T07:29:31;6.67;;;4.13;;
4839;SDS011;2434;48.486;7.964;2023-07-20T07:31:59;9.03;;;3.13;;
4839;SDS011;2434;48.486;7.964;2023-07-20T07:34:28;8.00;;;3.07;;
4839;SDS011;2434;48.486;7.964;2023-07-20T07:36:56;8.50;;;3.20;;
4839;SDS011;2434;48.486;7.964;2023-07-20T07:39:25;5.60;;;2.90;;
4839;SDS011;2434;48.486;7.964;2023-07-20T07:42:01;4.37;;;2.87;;
4839;SDS011;2434;48.486;7.964;2023-07-20T07:44:29;7.43;;;3.23;;
4839;SDS011;2434;48.486;7.964;2023-07-20T07:46:59;6.40;;;3.20;;
4839;SDS011;2434;48.486;7.964;2023-07-20T07:49:28;7.10;;;3.33;;
4839;SDS011;2434;48.486;7.964;2023-07-20T07:51:57;3.50;;;2.70;;
4839;SDS011;2434;48.486;7.964;2023-07-20T07:54:29;6.07;;;3.00;;
4839;SDS011;2434;48.486;7.964;2023-07-20T07:56:57;6.37;;;3.23;;
4839;SDS011;2434;48.486;7.964;2023-07-20T07:59:26;8.30;;;3.57;;
4839;SDS011;2434;48.486;7.964;2023-07-20T08:01:57;5.77;;;3.03;;
4839;SDS011;2434;48.486;7.964;2023-07-20T08:04:25;6.60;;;2.77;;
4839;SDS011;2434;48.486;7.964;2023-07-20T08:06:54;14.10;;;3.30;;
4839;SDS011;2434;48.486;7.964;2023-07-20T08:09:24;7.10;;;3.30;;
4839;SDS011;2434;48.486;7.964;2023-07-20T08:11:52;7.00;;;3.20;;
4839;SDS011;2434;48.486;7.964;2023-07-20T08:14:21;9.63;;;3.37;;
4839;SDS011;2434;48.486;7.964;2023-07-20T08:16:50;16.77;;;6.47;;
4839;SDS011;2434;48.486;7.964;2023-07-20T08:19:21;7.97;;;3.60;;
4839;SDS011;2434;48.486;7.964;2023-07-20T08:21:50;8.13;;;3.57;;
4839;SDS011;2434;48.486;7.964;2023-07-20T08:24:18;5.43;;;3.03;;
4839;SDS011;2434;48.486;7.964;2023-07-20T08:26:46;7.60;;;3.13;;
4839;SDS011;2434;48.486;7.964;2023-07-20T08:29:15;4.40;;;3.07;;
4839;SDS011;2434;48.486;7.964;2023-07-20T08:31:43;4.90;;;2.83;;
4839;SDS011;2434;48.486;7.964;2023-07-20T08:34:12;7.80;;;2.97;;
4839;SDS011;2434;48.486;7.964;2023-07-20T08:36:58;6.80;;;3.10;;
4839;SDS011;2434;48.486;7.964;2023-07-20T08:39:26;10.13;;;3.40;;
4839;SDS011;2434;48.486;7.964;2023-07-20T08:41:55;6.83;;;3.00;;
4839;SDS011;2434;48.486;7.964;2023-07-20T08:44:25;6.27;;;3.17;;
4839;SDS011;2434;48.486;7.964;2023-07-20T08:46:53;6.20;;;3.07;;
4839;SDS011;2434;48.486;7.964;2023-07-20T08:49:22;13.23;;;2.93;;
4839;SDS011;2434;48.486;7.964;2023-07-20T08:51:51;5.37;;;2.83;;
4839;SDS011;2434;48.486;7.964;2023-07-20T08:54:21;7.77;;;2.73;;
4839;SDS011;2434;48.486;7.964;2023-07-20T08:56:50;3.87;;;2.00;;
4839;SDS011;2434;48.486;7.964;2023-07-20T08:59:18;6.30;;;2.57;;
4839;SDS011;2434;48.486;7.964;2023-07-20T09:01:47;5.20;;;2.90;;
4839;SDS011;2434;48.486;7.964;2023-07-20T09:04:16;3.87;;;2.40;;
4839;SDS011;2434;48.486;7.964;2023-07-20T09:06:45;11.20;;;2.40;;
4839;SDS011;2434;48.486;7.964;2023-07-20T09:09:14;4.83;;;2.37;;
4839;SDS011;2434;48.486;7.964;2023-07-20T09:11:43;6.80;;;2.93;;
4839;SDS011;2434;48.486;7.964;2023-07-20T09:14:14;4.40;;;2.80;;
4839;SDS011;2434;48.486;7.964;2023-07-20T09:16:53;6.73;;;2.67;;
4839;SDS011;2434;48.486;7.964;2023-07-20T09:19:22;3.80;;;2.37;;
4839;SDS011;2434;48.486;7.964;2023-07-20T09:21:51;4.87;;;2.20;;
4839;SDS011;2434;48.486;7.964;2023-07-20T09:24:19;6.53;;;2.40;;
4839;SDS011;2434;48.486;7.964;2023-07-20T09:26:50;9.33;;;2.50;;
4839;SDS011;2434;48.486;7.964;2023-07-20T09:29:18;4.83;;;2.33;;
4839;SDS011;2434;48.486;7.964;2023-07-20T09:31:58;3.13;;;2.20;;
4839;SDS011;2434;48.486;7.964;2023-07-20T09:34:28;5.10;;;2.13;;
4839;SDS011;2434;48.486;7.964;2023-07-20T09:37:00;13.33;;;2.50;;
4839;SDS011;2434;48.486;7.964;2023-07-20T09:39:29;4.53;;;2.30;;
4839;SDS011;2434;48.486;7.964;2023-07-20T09:42:01;3.33;;;1.83;;
4839;SDS011;2434;48.486;7.964;2023-07-20T09:44:33;3.67;;;2.43;;
4839;SDS011;2434;48.486;7.964;2023-07-20T09:47:05;5.57;;;2.03;;
4839;SDS011;2434;48.486;7.964;2023-07-20T09:49:37;5.77;;;1.73;;
4839;SDS011;2434;48.486;7.964;2023-07-20T09:52:10;4.07;;;2.10;;
4839;SDS011;2434;48.486;7.964;2023-07-20T09:54:39;4.47;;;2.53;;
4839;SDS011;2434;48.486;7.964;2023-07-20T09:57:09;3.20;;;1.73;;
4839;SDS011;2434;48.486;7.964;2023-07-20T09:59:40;6.50;;;2.50;;
4839;SDS011;2434;48.486;7.964;2023-07-20T10:02:10;4.30;;;1.90;;
4839;SDS011;2434;48.486;7.964;2023-07-20T10:04:43;4.67;;;2.30;;
4839;SDS011;2434;48.486;7.964;2023-07-20T10:07:12;4.90;;;2.13;;
4839;SDS011;2434;48.486;7.964;2023-07-20T10:09:42;3.37;;;1.77;;
4839;SDS011;2434;48.486;7.964;2023-07-20T10:12:13;4.20;;;1.87;;
4839;SDS011;2434;48.486;7.964;2023-07-20T10:14:44;5.90;;;2.33;;
4839;SDS011;2434;48.486;7.964;2023-07-20T10:17:19;4.00;;;1.90;;
4839;SDS011;2434;48.486;7.964;2023-07-20T10:19:50;9.57;;;2.17;;
4839;SDS011;2434;48.486;7.964;2023-07-20T10:22:24;3.97;;;1.90;;
4839;SDS011;2434;48.486;7.964;2023-07-20T10:24:54;3.30;;;2.17;;
4839;SDS011;2434;48.486;7.964;2023-07-20T10:27:27;4.63;;;2.10;;
4839;SDS011;2434;48.486;7.964;2023-07-20T10:29:55;5.83;;;2.30;;
4839;SDS011;2434;48.486;7.964;2023-07-20T10:32:28;3.87;;;2.30;;
4839;SDS011;2434;48.486;7.964;2023-07-20T10:34:56;6.40;;;2.03;;
4839;SDS011;2434;48.486;7.964;2023-07-20T10:40:32;6.20;;;2.57;;
4839;SDS011;2434;48.486;7.964;2023-07-20T10:43:03;7.43;;;2.60;;
4839;SDS011;2434;48.486;7.964;2023-07-20T10:45:41;3.77;;;1.80;;
4839;SDS011;2434;48.486;7.964;2023-07-20T10:48:13;3.53;;;2.00;;
4839;SDS011;2434;48.486;7.964;2023-07-20T10:50:43;5.00;;;2.20;;
4839;SDS011;2434;48.486;7.964;2023-07-20T10:53:12;5.10;;;2.50;;
4839;SDS011;2434;48.486;7.964;2023-07-20T10:55:41;4.87;;;2.60;;
4839;SDS011;2434;48.486;7.964;2023-07-20T10:58:12;3.53;;;2.10;;
4839;SDS011;2434;48.486;7.964;2023-07-20T11:00:54;10.20;;;2.80;;
4839;SDS011;2434;48.486;7.964;2023-07-20T11:03:32;3.60;;;2.00;;
4839;SDS011;2434;48.486;7.964;2023-07-20T11:06:29;3.07;;;2.17;;
4839;SDS011;2434;48.486;7.964;2023-07-20T11:09:04;5.70;;;2.30;;
4839;SDS011;2434;48.486;7.964;2023-07-20T11:11:35;4.97;;;2.20;;
4839;SDS011;2434;48.486;7.964;2023-07-20T11:14:06;4.93;;;2.03;;
4839;SDS011;2434;48.486;7.964;2023-07-20T11:16:39;7.10;;;2.10;;
4839;SDS011;2434;48.486;7.964;2023-07-20T11:19:14;5.67;;;2.33;;
4839;SDS011;2434;48.486;7.964;2023-07-20T11:21:49;4.60;;;2.00;;
4839;SDS011;2434;48.486;7.964;2023-07-20T11:24:29;4.27;;;1.80;;
4839;SDS011;2434;48.486;7.964;2023-07-20T11:26:58;5.80;;;2.40;;
4839;SDS011;2434;48.486;7.964;2023-07-20T11:29:29;5.50;;;2.27;;
4839;SDS011;2434;48.486;7.964;2023-07-20T11:32:00;3.67;;;2.40;;
4839;SDS011;2434;48.486;7.964;2023-07-20T11:34:31;10.13;;;1.97;;
4839;SDS011;2434;48.486;7.964;2023-07-20T11:37:01;2.72;;;1.70;;
4839;SDS011;2434;48.486;7.964;2023-07-20T11:39:33;3.47;;;1.83;;
4839;SDS011;2434;48.486;7.964;2023-07-20T11:42:02;7.93;;;2.63;;
4839;SDS011;2434;48.486;7.964;2023-07-20T11:44:32;3.80;;;1.87;;
4839;SDS011;2434;48.486;7.964;2023-07-20T11:47:02;5.20;;;2.10;;
4839;SDS011;2434;48.486;7.964;2023-07-20T11:49:34;3.23;;;2.17;;
4839;SDS011;2434;48.486;7.964;2023-07-20T11:52:04;3.90;;;2.03;;
4839;SDS011;2434;48.486;7.964;2023-07-20T11:54:34;4.57;;;1.83;;
4839;SDS011;2434;48.486;7.964;2023-07-20T11:57:03;5.27;;;2.43;;
4839;SDS011;2434;48.486;7.964;2023-07-20T11:59:33;6.03;;;2.00;;
4839;SDS011;2434;48.486;7.964;2023-07-20T12:02:02;7.53;;;2.03;;
4839;SDS011;2434;48.486;7.964;2023-07-20T12:04:31;4.07;;;2.27;;
4839;SDS011;2434;48.486;7.964;2023-07-20T12:07:00;5.10;;;1.80;;
4839;SDS011;2434;48.486;7.964;2023-07-20T12:09:28;2.83;;;1.70;;
4839;SDS011;2434;48.486;7.964;2023-07-20T12:12:18;5.93;;;2.50;;
4839;SDS011;2434;48.486;7.964;2023-07-20T12:14:48;2.57;;;1.80;;
4839;SDS011;2434;48.486;7.964;2023-07-20T12:17:16;4.80;;;1.90;;
4839;SDS011;2434;48.486;7.964;2023-07-20T12:19:45;2.53;;;2.10;;
4839;SDS011;2434;48.486;7.964;2023-07-20T12:22:13;4.30;;;1.63;;
4839;SDS011;2434;48.486;7.964;2023-07-20T12:24:42;8.73;;;2.13;;
4839;SDS011;2434;48.486;7.964;2023-07-20T12:27:12;5.30;;;1.73;;
4839;SDS011;2434;48.486;7.964;2023-07-20T12:29:44;3.50;;;1.80;;
4839;SDS011;2434;48.486;7.964;2023-07-20T12:32:14;4.40;;;2.57;;
4839;SDS011;2434;48.486;7.964;2023-07-20T12:34:43;5.23;;;1.93;;
4839;SDS011;2434;48.486;7.964;2023-07-20T12:37:11;3.37;;;1.90;;
4839;SDS011;2434;48.486;7.964;2023-07-20T12:39:39;6.53;;;1.90;;
4839;SDS011;2434;48.486;7.964;2023-07-20T12:42:13;7.97;;;1.80;;
4839;SDS011;2434;48.486;7.964;2023-07-20T12:44:43;6.73;;;2.40;;
4839;SDS011;2434;48.486;7.964;2023-07-20T12:47:12;5.93;;;2.17;;
4839;SDS011;2434;48.486;7.964;2023-07-20T12:49:41;4.87;;;1.70;;
4839;SDS011;2434;48.486;7.964;2023-07-20T12:52:11;4.67;;;2.00;;
4839;SDS011;2434;48.486;7.964;2023-07-20T12:54:40;2.70;;;1.80;;
4839;SDS011;2434;48.486;7.964;2023-07-20T12:57:08;3.70;;;2.17;;
4839;SDS011;2434;48.486;7.964;2023-07-20T12:59:38;4.60;;;2.00;;
4839;SDS011;2434;48.486;7.964;2023-07-20T13:02:06;6.43;;;1.87;;
4839;SDS011;2434;48.486;7.964;2023-07-20T13:04:35;3.87;;;1.57;;
4839;SDS011;2434;48.486;7.964;2023-07-20T13:07:05;8.23;;;1.93;;
4839;SDS011;2434;48.486;7.964;2023-07-20T13:09:39;2.67;;;1.60;;
4839;SDS011;2434;48.486;7.964;2023-07-20T13:12:08;2.83;;;1.53;;
4839;SDS011;2434;48.486;7.964;2023-07-20T13:14:36;3.93;;;1.97;;
4839;SDS011;2434;48.486;7.964;2023-07-20T13:17:05;3.73;;;2.00;;
4839;SDS011;2434;48.486;7.964;2023-07-20T13:19:34;3.03;;;1.67;;
4839;SDS011;2434;48.486;7.964;2023-07-20T13:22:05;6.60;;;2.00;;
4839;SDS011;2434;48.486;7.964;2023-07-20T13:24:33;4.10;;;1.50;;
4839;SDS011;2434;48.486;7.964;2023-07-20T13:27:02;3.73;;;1.43;;
4839;SDS011;2434;48.486;7.964;2023-07-20T13:29:31;2.47;;;1.40;;
4839;SDS011;2434;48.486;7.964;2023-07-20T13:31:59;3.40;;;1.50;;
4839;SDS011;2434;48.486;7.964;2023-07-20T13:34:29;5.10;;;1.50;;
4839;SDS011;2434;48.486;7.964;2023-07-20T13:36:58;5.67;;;1.90;;
4839;SDS011;2434;48.486;7.964;2023-07-20T13:39:28;5.97;;;1.40;;
4839;SDS011;2434;48.486;7.964;2023-07-20T13:41:56;5.50;;;1.60;;
4839;SDS011;2434;48.486;7.964;2023-07-20T13:44:25;4.60;;;1.97;;
4839;SDS011;2434;48.486;7.964;2023-07-20T13:46:56;4.57;;;2.40;;
4839;SDS011;2434;48.486;7.964;2023-07-20T13:49:44;3.33;;;1.73;;
4839;SDS011;2434;48.486;7.964;2023-07-20T13:52:13;2.77;;;1.63;;
4839;SDS011;2434;48.486;7.964;2023-07-20T13:54:46;2.37;;;1.30;;
4839;SDS011;2434;48.486;7.964;2023-07-20T13:57:18;4.00;;;1.90;;
4839;SDS011;2434;48.486;7.964;2023-07-20T13:59:47;4.80;;;1.70;;
4839;SDS011;2434;48.486;7.964;2023-07-20T14:02:17;4.37;;;1.87;;
4839;SDS011;2434;48.486;7.964;2023-07-20T14:04:48;7.03;;;1.70;;
4839;SDS011;2434;48.486;7.964;2023-07-20T14:07:36;3.00;;;1.60;;
4839;SDS011;2434;48.486;7.964;2023-07-20T14:10:07;2.60;;;1.70;;
4839;SDS011;2434;48.486;7.964;2023-07-20T14:12:39;3.83;;;1.60;;
4839;SDS011;2434;48.486;7.964;2023-07-20T14:15:07;10.27;;;1.60;;
4839;SDS011;2434;48.486;7.964;2023-07-20T14:17:37;2.37;;;1.40;;
4839;SDS011;2434;48.486;7.964;2023-07-20T14:20:06;3.43;;;1.53;;
4839;SDS011;2434;48.486;7.964;2023-07-20T14:22:38;3.70;;;1.83;;
4839;SDS011;2434;48.486;7.964;2023-07-20T14:25:09;7.90;;;1.73;;
4839;SDS011;2434;48.486;7.964;2023-07-20T14:27:38;5.20;;;1.90;;
4839;SDS011;2434;48.486;7.964;2023-07-20T14:30:06;3.50;;;1.90;;
4839;SDS011;2434;48.486;7.964;2023-07-20T14:32:35;2.90;;;1.43;;
4839;SDS011;2434;48.486;7.964;2023-07-20T14:35:05;5.87;;;1.83;;
4839;SDS011;2434;48.486;7.964;2023-07-20T14:37:36;3.37;;;2.00;;
4839;SDS011;2434;48.486;7.964;2023-07-20T14:40:05;3.47;;;1.70;;
4839;SDS011;2434;48.486;7.964;2023-07-20T14:42:36;2.33;;;1.30;;
4839;SDS011;2434;48.486;7.964;2023-07-20T14:45:05;3.87;;;1.60;;
4839;SDS011;2434;48.486;7.964;2023-07-20T14:47:34;2.90;;;1.40;;
4839;SDS011;2434;48.486;7.964;2023-07-20T14:50:04;5.90;;;1.87;;
4839;SDS011;2434;48.486;7.964;2023-07-20T14:52:33;3.40;;;1.43;;
4839;SDS011;2434;48.486;7.964;2023-07-20T14:55:01;6.23;;;2.03;;
4839;SDS011;2434;48.486;7.964;2023-07-20T14:57:29;2.10;;;1.40;;
4839;SDS011;2434;48.486;7.964;2023-07-20T14:59:59;4.90;;;2.13;;
4839;SDS011;2434;48.486;7.964;2023-07-20T15:02:27;3.10;;;1.40;;
4839;SDS011;2434;48.486;7.964;2023-07-20T15:04:56;3.47;;;1.60;;
4839;SDS011;2434;48.486;7.964;2023-07-20T15:07:24;3.57;;;1.50;;
4839;SDS011;2434;48.486;7.964;2023-07-20T15:09:52;3.50;;;1.40;;
4839;SDS011;2434;48.486;7.964;2023-07-20T15:12:21;4.80;;;2.10;;
4839;SDS011;2434;48.486;7.964;2023-07-20T15:14:51;3.93;;;1.60;;
4839;SDS011;2434;48.486;7.964;2023-07-20T15:17:32;2.90;;;1.30;;
4839;SDS011;2434;48.486;7.964;2023-07-20T15:20:02;3.90;;;1.40;;
4839;SDS011;2434;48.486;7.964;2023-07-20T15:22:32;3.40;;;2.10;;
4839;SDS011;2434;48.486;7.964;2023-07-20T15:25:01;7.03;;;1.60;;
4839;SDS011;2434;48.486;7.964;2023-07-20T15:27:30;2.80;;;1.40;;
4839;SDS011;2434;48.486;7.964;2023-07-20T15:29:59;3.10;;;1.70;;
4839;SDS011;2434;48.486;7.964;2023-07-20T15:32:29;3.53;;;1.57;;
4839;SDS011;2434;48.486;7.964;2023-07-20T15:35:17;2.60;;;1.73;;